Terminal Aerodrome Forecast
Issued by NWS Northern Indiana

Home | Current Version | Previous Version | Text Only | Print | Product List | Glossary On
Versions: 1 2 3 4 5 6 7 8 9 10 11 12 13 14 15 16 17 18
018
FTUS43 KIWX 291130
TAFFWA
TAF
KFWA 291130Z 2912/3012 VRB03KT 6SM BR OVC012
      TEMPO 2912/2914 4SM -DZ BR OVC007
     FM291400 03004KT P6SM OVC010
     FM291800 04005KT P6SM BKN025
     FM292300 06006KT P6SM BKN050=

USA.gov is the U.S. government's official web portal to all federal, state and local government web resources and services.